createdAt,value
2019-05-20T00:00:23.837Z,14.20
2019-05-20T00:02:52.489Z,14.11
2019-05-20T00:05:21.125Z,14.05
2019-05-20T00:07:49.771Z,14.02
2019-05-20T00:10:18.482Z,13.95
2019-05-20T00:12:47.127Z,13.90
2019-05-20T00:15:16.036Z,13.90
2019-05-20T00:17:45.022Z,13.77
2019-05-20T00:20:13.709Z,13.72
2019-05-20T00:22:42.399Z,13.66
2019-05-20T00:25:11.582Z,13.66
2019-05-20T00:27:41.056Z,13.56
2019-05-20T00:30:10.764Z,13.31
2019-05-20T00:32:41.564Z,13.21
2019-05-20T00:35:09.891Z,13.39
2019-05-20T00:37:38.517Z,13.35
2019-05-20T00:40:07.426Z,13.26
2019-05-20T00:42:36.122Z,13.21
2019-05-20T00:45:05.442Z,13.09
2019-05-20T00:47:34.189Z,13.15
2019-05-20T00:50:03.247Z,13.17
2019-05-20T00:52:34.513Z,13.04
2019-05-20T00:55:03.218Z,12.95
2019-05-20T00:57:31.848Z,12.96
2019-05-20T01:00:00.508Z,12.94
2019-05-20T01:02:29.228Z,12.89
2019-05-20T01:04:57.879Z,12.85
2019-05-20T01:07:26.557Z,13.00
2019-05-20T01:09:55.210Z,12.97
2019-05-20T01:12:23.858Z,12.93
2019-05-20T01:14:52.518Z,12.89
2019-05-20T01:17:21.269Z,12.62
2019-05-20T01:19:50.030Z,12.57
2019-05-20T01:22:18.663Z,12.61
2019-05-20T01:24:47.303Z,12.57
2019-05-20T01:27:15.942Z,12.52
2019-05-20T01:29:44.570Z,12.56
2019-05-20T01:32:13.176Z,12.42
2019-05-20T01:34:43.598Z,12.57
2019-05-20T01:37:12.227Z,12.56
2019-05-20T01:39:40.869Z,12.43
2019-05-20T01:42:09.512Z,12.73
2019-05-20T01:44:38.209Z,12.60
2019-05-20T01:47:06.827Z,12.41
2019-05-20T01:49:35.469Z,12.46
2019-05-20T01:52:04.140Z,12.35
2019-05-20T01:54:32.856Z,12.34
2019-05-20T01:57:01.537Z,12.24
2019-05-20T01:59:30.230Z,12.12
2019-05-20T02:01:58.919Z,11.97
2019-05-20T02:04:27.615Z,12.04
2019-05-20T02:06:56.333Z,12.20
2019-05-20T02:09:25.086Z,12.22
2019-05-20T02:11:53.790Z,12.20
2019-05-20T02:14:24.661Z,12.14
2019-05-20T02:16:53.480Z,12.10
2019-05-20T02:19:22.320Z,12.18
2019-05-20T02:21:51.080Z,12.28
2019-05-20T02:24:19.883Z,12.17
2019-05-20T02:26:48.714Z,12.24
2019-05-20T02:29:17.444Z,12.26
2019-05-20T02:31:46.170Z,11.98
2019-05-20T02:34:15.001Z,11.94
2019-05-20T02:36:43.735Z,11.88
2019-05-20T02:39:12.530Z,11.95
2019-05-20T02:41:41.329Z,11.93
2019-05-20T02:44:10.004Z,11.94
2019-05-20T02:46:38.623Z,12.00
2019-05-20T02:49:07.236Z,11.91
2019-05-20T02:51:35.970Z,11.82
2019-05-20T02:54:04.784Z,11.65
2019-05-20T02:56:33.458Z,11.47
2019-05-20T02:59:02.158Z,11.32
2019-05-20T03:01:30.801Z,11.33
2019-05-20T03:04:10.556Z,11.37
2019-05-20T03:06:29.798Z,11.43
2019-05-20T03:08:58.490Z,11.56
2019-05-20T03:11:27.189Z,11.47
2019-05-20T03:13:55.890Z,11.56
2019-05-20T03:16:24.595Z,11.55
2019-05-20T03:18:53.269Z,11.47
2019-05-20T03:21:21.869Z,11.45
2019-05-20T03:23:53.621Z,11.39
2019-05-20T03:26:22.313Z,11.22
2019-05-20T03:28:51.043Z,11.27
2019-05-20T03:31:19.832Z,11.24
2019-05-20T03:33:48.657Z,11.26
2019-05-20T03:36:17.299Z,11.14
2019-05-20T03:38:46.085Z,11.04
2019-05-20T03:41:14.752Z,10.96
2019-05-20T03:43:43.501Z,11.04
2019-05-20T03:46:12.256Z,11.14
2019-05-20T03:48:40.902Z,11.08
2019-05-20T03:51:09.749Z,11.07
2019-05-20T03:53:38.444Z,10.98
2019-05-20T03:56:07.047Z,11.01
2019-05-20T03:58:35.700Z,11.08
2019-05-20T04:01:04.425Z,11.15
2019-05-20T04:03:33.120Z,11.04
2019-05-20T04:06:01.890Z,10.98
2019-05-20T04:08:30.547Z,11.07
2019-05-20T04:10:59.244Z,11.11
2019-05-20T04:13:28.024Z,11.13
2019-05-20T04:15:56.649Z,11.10
2019-05-20T04:18:25.315Z,11.06
2019-05-20T04:20:53.941Z,11.19
2019-05-20T04:23:22.658Z,11.19
2019-05-20T04:25:51.318Z,11.34
2019-05-20T04:28:19.928Z,11.37
2019-05-20T04:30:48.656Z,11.53
2019-05-20T04:33:17.281Z,11.65
2019-05-20T04:35:49.637Z,11.64
2019-05-20T04:38:16.673Z,11.68
2019-05-20T04:40:45.318Z,11.63
2019-05-20T04:43:14.029Z,11.68
2019-05-20T04:45:43.108Z,11.76
2019-05-20T04:48:13.903Z,11.83
2019-05-20T04:50:42.135Z,12.01
2019-05-20T04:53:10.793Z,12.11
2019-05-20T04:55:39.833Z,12.17
2019-05-20T04:58:08.487Z,12.23
2019-05-20T05:00:54.289Z,12.32
2019-05-20T05:03:23.208Z,12.33
2019-05-20T05:05:52.319Z,12.43
2019-05-20T05:08:21.314Z,12.49
2019-05-20T05:10:50.176Z,12.61
2019-05-20T05:13:19.182Z,12.75
2019-05-20T05:15:48.012Z,12.82
2019-05-20T05:18:16.726Z,12.97
2019-05-20T05:20:45.453Z,13.13
2019-05-20T05:23:14.253Z,13.34
2019-05-20T05:25:43.021Z,13.39
2019-05-20T05:28:11.737Z,13.48
2019-05-20T05:30:40.680Z,13.72
2019-05-20T05:33:09.391Z,13.93
2019-05-20T05:35:52.215Z,14.13
2019-05-20T05:38:18.636Z,14.43
2019-05-20T05:40:47.291Z,14.62
2019-05-20T05:43:19.168Z,14.79
2019-05-20T05:45:47.889Z,15.00
2019-05-20T05:48:16.620Z,15.16
2019-05-20T05:50:45.551Z,15.23
2019-05-20T05:53:16.997Z,15.33
2019-05-20T05:55:45.657Z,15.52
2019-05-20T05:58:14.280Z,15.61
2019-05-20T06:00:43.374Z,15.81
2019-05-20T06:03:12.103Z,15.88
2019-05-20T06:05:40.734Z,16.08
2019-05-20T06:08:11.505Z,16.13
2019-05-20T06:10:41.666Z,15.93
2019-05-20T06:13:10.363Z,15.82
2019-05-20T06:15:38.978Z,15.96
2019-05-20T06:18:07.639Z,16.14
2019-05-20T06:20:36.377Z,16.21
2019-05-20T06:23:05.094Z,16.48
2019-05-20T06:25:33.735Z,16.47
2019-05-20T06:28:04.097Z,16.38
2019-05-20T06:30:44.023Z,16.50
2019-05-20T06:33:13.269Z,16.73
2019-05-20T06:35:42.271Z,16.71
2019-05-20T06:38:33.935Z,16.72
2019-05-20T06:41:03.148Z,16.54
2019-05-20T06:43:32.031Z,16.55
2019-05-20T06:46:00.749Z,16.71
2019-05-20T06:48:29.565Z,16.90
2019-05-20T06:50:58.219Z,16.71
2019-05-20T06:53:26.940Z,16.71
2019-05-20T06:55:55.597Z,16.57
2019-05-20T06:58:24.248Z,16.58
2019-05-20T07:00:53.031Z,16.57
2019-05-20T07:03:22.756Z,16.42
2019-05-20T07:05:53.830Z,16.44
2019-05-20T07:08:22.602Z,16.52
2019-05-20T07:10:51.243Z,16.74
2019-05-20T07:13:19.883Z,16.74
2019-05-20T07:15:48.515Z,16.54
2019-05-20T07:18:17.237Z,16.52
2019-05-20T07:20:47.934Z,16.69
2019-05-20T07:23:16.597Z,16.83
2019-05-20T07:25:45.232Z,16.83
2019-05-20T07:28:13.964Z,16.79
2019-05-20T07:30:42.622Z,16.89
2019-05-20T07:33:11.224Z,16.94
2019-05-20T07:35:40.826Z,17.09
2019-05-20T07:38:09.460Z,17.28
2019-05-20T07:40:38.104Z,17.42
2019-05-20T07:43:06.859Z,17.42
2019-05-20T07:45:35.877Z,17.51
2019-05-20T07:48:05.053Z,17.54
2019-05-20T07:50:35.441Z,17.54
2019-05-20T07:53:04.859Z,17.54
2019-05-20T07:55:37.408Z,17.58
2019-05-20T07:58:09.049Z,17.60
2019-05-20T08:00:37.856Z,17.60
2019-05-20T08:03:06.585Z,17.72
2019-05-20T08:05:35.306Z,17.64
2019-05-20T08:08:04.031Z,17.64
2019-05-20T08:10:32.820Z,17.80
2019-05-20T08:13:01.617Z,17.73
2019-05-20T08:15:30.360Z,17.85
2019-05-20T08:17:59.079Z,17.72
2019-05-20T08:20:27.749Z,17.64
2019-05-20T08:22:57.614Z,17.72
2019-05-20T08:25:26.351Z,17.72
2019-05-20T08:27:55.101Z,17.72
2019-05-20T08:30:32.121Z,17.65
2019-05-20T08:33:00.824Z,17.40
2019-05-20T08:35:29.512Z,17.40
2019-05-20T08:37:58.314Z,17.40
2019-05-20T08:40:27.851Z,17.46
2019-05-20T08:42:56.509Z,17.45
2019-05-20T08:45:25.247Z,17.44
2019-05-20T08:47:53.964Z,17.98
2019-05-20T08:50:22.695Z,17.78
2019-05-20T08:52:51.439Z,17.78
2019-05-20T08:55:20.552Z,18.15
2019-05-20T08:57:51.467Z,18.15
2019-05-20T09:00:24.228Z,18.60
2019-05-20T09:02:53.334Z,18.65
2019-05-20T09:05:22.064Z,18.64
2019-05-20T09:08:02.294Z,18.94
2019-05-20T09:10:21.248Z,18.98
2019-05-20T09:12:50.350Z,19.03
2019-05-20T09:15:19.181Z,18.99
2019-05-20T09:17:47.809Z,18.99
2019-05-20T09:20:17.647Z,18.99
2019-05-20T09:22:46.341Z,19.19
2019-05-20T09:25:15.383Z,19.35
2019-05-20T09:27:44.082Z,19.35
2019-05-20T09:30:13.371Z,19.21
2019-05-20T09:32:43.186Z,19.12
2019-05-20T09:35:12.373Z,18.99
2019-05-20T09:37:41.095Z,19.25
2019-05-20T09:40:11.191Z,19.25
2019-05-20T09:42:40.931Z,19.29
2019-05-20T09:45:10.369Z,19.52
2019-05-20T09:47:39.136Z,19.52
2019-05-20T09:50:07.951Z,19.64
2019-05-20T09:52:36.562Z,19.58
2019-05-20T09:55:05.666Z,19.63
2019-05-20T09:57:34.506Z,19.85
2019-05-20T10:00:05.247Z,19.85
2019-05-20T10:02:38.006Z,19.88
2019-05-20T10:05:05.171Z,20.24
2019-05-20T10:07:34.060Z,20.35
2019-05-20T10:10:02.861Z,20.35
2019-05-20T10:12:45.399Z,20.20
2019-05-20T10:15:02.156Z,20.24
2019-05-20T10:17:31.015Z,20.24
2019-05-20T10:19:59.759Z,20.22
2019-05-20T10:22:28.483Z,20.22
2019-05-20T10:24:58.069Z,20.24
2019-05-20T10:27:27.544Z,20.22
2019-05-20T10:29:56.205Z,19.96
2019-05-20T10:32:24.865Z,20.25
2019-05-20T10:34:53.619Z,20.25
2019-05-20T10:37:22.306Z,20.52
2019-05-20T10:39:51.021Z,20.80
2019-05-20T10:42:20.018Z,20.80
2019-05-20T10:44:48.663Z,20.72
2019-05-20T10:47:17.311Z,21.06
2019-05-20T10:49:45.936Z,21.02
2019-05-20T10:52:14.586Z,20.95
2019-05-20T10:54:43.241Z,20.53
2019-05-20T10:57:11.865Z,20.58
2019-05-20T10:59:40.518Z,20.73
2019-05-20T11:02:09.260Z,20.45
2019-05-20T11:04:38.026Z,20.36
2019-05-20T11:07:06.808Z,20.48
2019-05-20T11:09:35.478Z,20.48
2019-05-20T11:12:04.226Z,19.90
2019-05-20T11:14:32.852Z,19.90
2019-05-20T11:17:01.516Z,19.47
2019-05-20T11:19:30.183Z,19.53
2019-05-20T11:21:58.918Z,19.53
2019-05-20T11:24:27.571Z,19.53
2019-05-20T11:26:56.305Z,19.63
2019-05-20T11:29:25.021Z,19.36
2019-05-20T11:31:53.730Z,19.36
2019-05-20T11:34:22.565Z,19.49
2019-05-20T11:36:51.232Z,19.65
2019-05-20T11:39:32.319Z,19.91
2019-05-20T11:41:54.572Z,19.91
2019-05-20T11:44:20.706Z,20.00
2019-05-20T11:46:49.341Z,19.73
2019-05-20T11:49:17.988Z,19.41
2019-05-20T11:51:46.694Z,19.23
2019-05-20T11:54:15.426Z,19.23
2019-05-20T11:56:44.066Z,18.99
2019-05-20T11:59:12.735Z,19.15
2019-05-20T12:01:41.471Z,19.21
2019-05-20T12:04:10.144Z,19.21
2019-05-20T12:06:38.767Z,19.03
2019-05-20T12:09:07.740Z,18.86
2019-05-20T12:11:36.368Z,18.71
2019-05-20T12:14:05.203Z,18.56
2019-05-20T12:16:33.831Z,18.36
2019-05-20T12:19:02.470Z,18.59
2019-05-20T12:21:31.144Z,18.63
2019-05-20T12:24:00.285Z,18.39
2019-05-20T12:26:40.136Z,18.39
2019-05-20T12:29:12.378Z,18.42
2019-05-20T12:31:50.579Z,17.90
2019-05-20T12:34:45.863Z,17.86
2019-05-20T12:37:16.134Z,17.78
2019-05-20T12:39:48.167Z,17.78
2019-05-20T12:42:23.663Z,17.66
2019-05-20T12:47:33.529Z,17.63
2019-05-20T12:50:03.648Z,17.63
2019-05-20T12:52:55.751Z,17.84
2019-05-20T12:55:28.738Z,17.52
2019-05-20T12:58:02.822Z,17.66
2019-05-20T13:00:37.728Z,17.42
2019-05-20T13:03:07.942Z,17.42
2019-05-20T13:05:37.346Z,17.36
2019-05-20T13:08:09.266Z,17.37
2019-05-20T13:10:41.734Z,17.58
2019-05-20T13:13:21.819Z,17.37
2019-05-20T13:15:56.100Z,17.29
2019-05-20T13:18:55.588Z,17.38
2019-05-20T13:21:30.711Z,17.26
2019-05-20T13:24:00.841Z,17.30
2019-05-20T13:26:32.837Z,17.23
2019-05-20T13:29:05.022Z,17.07
2019-05-20T13:31:37.776Z,16.94
2019-05-20T13:34:18.851Z,17.00
2019-05-20T13:36:54.677Z,16.92
2019-05-20T13:39:26.399Z,16.80
2019-05-20T13:41:59.833Z,16.75
2019-05-20T13:44:37.182Z,16.54
2019-05-20T13:47:06.398Z,16.58
2019-05-20T13:49:39.604Z,16.26
2019-05-20T13:52:10.758Z,16.11
2019-05-20T13:54:43.831Z,15.88
2019-05-20T13:57:17.368Z,15.68
2019-05-20T13:59:57.562Z,15.48
2019-05-20T14:02:28.882Z,15.63
2019-05-20T14:05:13.740Z,15.70
2019-05-20T14:07:48.751Z,15.74
2019-05-20T14:10:22.562Z,15.84
2019-05-20T14:16:10.686Z,15.94
2019-05-20T14:18:57.423Z,16.01
2019-05-20T14:21:34.837Z,16.21
2019-05-20T14:24:16.903Z,16.10
2019-05-20T14:26:54.828Z,16.31
2019-05-20T14:29:26.980Z,16.21
2019-05-20T14:32:04.862Z,16.23
2019-05-20T14:34:36.746Z,16.34
2019-05-20T14:37:09.037Z,16.28
2019-05-20T14:39:38.189Z,16.43
2019-05-20T14:42:11.053Z,16.49
2019-05-20T14:44:43.796Z,16.33
2019-05-20T14:47:13.842Z,16.46
2019-05-20T14:49:48.924Z,16.50
2019-05-20T14:52:19.522Z,16.34
2019-05-20T14:54:50.501Z,16.16
2019-05-20T14:57:36.720Z,16.12
2019-05-20T15:00:08.229Z,16.06
2019-05-20T15:02:39.687Z,16.01
2019-05-20T15:05:12.301Z,16.12
2019-05-20T15:07:41.432Z,16.13
2019-05-20T15:10:15.690Z,16.12
2019-05-20T15:12:44.999Z,16.10
2019-05-20T15:15:23.461Z,16.17
2019-05-20T15:17:59.554Z,16.04
2019-05-20T15:20:40.872Z,16.03
2019-05-20T15:23:02.802Z,16.08
2019-05-20T15:25:53.859Z,16.06
2019-05-20T15:28:22.665Z,15.93
2019-05-20T15:30:51.340Z,15.99
2019-05-20T15:33:24.273Z,15.94
2019-05-20T15:36:02.465Z,15.94
2019-05-20T15:38:39.822Z,15.81
2019-05-20T15:41:08.448Z,15.83
2019-05-20T15:43:37.109Z,15.75
2019-05-20T15:46:05.804Z,15.79
2019-05-20T15:48:34.466Z,15.77
2019-05-20T15:51:03.184Z,15.71
2019-05-20T15:53:31.830Z,15.74
2019-05-20T15:56:00.542Z,15.78
2019-05-20T15:58:29.166Z,15.78
2019-05-20T16:00:57.806Z,15.90
2019-05-20T16:03:26.489Z,15.80
2019-05-20T16:05:59.427Z,15.89
2019-05-20T16:08:25.547Z,15.77
2019-05-20T16:10:54.180Z,15.80
2019-05-20T16:13:22.837Z,15.79
2019-05-20T16:15:51.482Z,15.89
2019-05-20T16:18:20.155Z,15.88
2019-05-20T16:20:48.807Z,15.89
2019-05-20T16:23:17.459Z,15.95
2019-05-20T16:25:46.202Z,15.99
2019-05-20T16:28:14.956Z,15.95
2019-05-20T16:30:43.790Z,15.98
2019-05-20T16:33:12.482Z,15.90
2019-05-20T16:35:41.190Z,15.92
2019-05-20T16:38:09.910Z,15.78
2019-05-20T16:40:38.532Z,15.84
2019-05-20T16:43:07.353Z,15.91
2019-05-20T16:45:36.039Z,15.90
2019-05-20T16:48:04.775Z,15.86
2019-05-20T16:50:33.608Z,15.80
2019-05-20T16:53:02.312Z,15.82
2019-05-20T16:55:31.063Z,15.72
2019-05-20T16:57:59.821Z,15.78
2019-05-20T17:00:32.047Z,15.86
2019-05-20T17:02:58.899Z,15.95
2019-05-20T17:05:27.542Z,15.93
2019-05-20T17:07:56.281Z,15.98
2019-05-20T17:10:25.018Z,15.79
2019-05-20T17:12:53.682Z,15.85
2019-05-20T17:15:22.483Z,15.86
2019-05-20T17:17:51.188Z,15.76
2019-05-20T17:20:19.934Z,15.82
2019-05-20T17:22:48.530Z,15.81
2019-05-20T17:25:17.278Z,15.83
2019-05-20T17:27:45.884Z,15.81
2019-05-20T17:30:14.733Z,15.78
2019-05-20T17:32:43.580Z,15.93
2019-05-20T17:35:17.739Z,15.97
2019-05-20T17:37:56.657Z,15.86
2019-05-20T17:40:27.313Z,15.79
2019-05-20T17:43:03.024Z,15.85
2019-05-20T17:45:49.348Z,15.68
2019-05-20T17:48:31.632Z,15.87
2019-05-20T17:51:10.584Z,15.87
2019-05-20T17:54:00.413Z,15.90
2019-05-20T17:56:29.511Z,15.80
2019-05-20T17:59:00.780Z,15.77
2019-05-20T18:01:31.492Z,15.89
2019-05-20T18:04:03.977Z,15.80
2019-05-20T18:06:45.152Z,15.77
2019-05-20T18:09:38.776Z,15.92
2019-05-20T18:12:08.295Z,15.95
2019-05-20T18:14:39.030Z,16.02
2019-05-20T18:17:11.467Z,15.93
2019-05-20T18:19:43.196Z,15.86
2019-05-20T18:22:16.301Z,15.90
2019-05-20T18:25:04.748Z,15.84
2019-05-20T18:27:34.110Z,15.82
2019-05-20T18:30:07.254Z,15.85
2019-05-20T18:32:39.041Z,15.77
2019-05-20T18:35:12.930Z,15.82
2019-05-20T18:37:45.165Z,15.83
2019-05-20T18:40:17.151Z,15.81
2019-05-20T18:42:46.639Z,15.84
2019-05-20T18:45:17.153Z,15.75
2019-05-20T18:47:50.371Z,15.82
2019-05-20T18:50:23.167Z,15.85
2019-05-20T18:52:53.457Z,15.82
2019-05-20T18:55:22.459Z,15.77
2019-05-20T18:57:55.144Z,15.76
2019-05-20T19:00:25.224Z,15.78
2019-05-20T19:02:55.002Z,15.68
2019-05-20T19:05:29.560Z,15.48
2019-05-20T19:08:07.372Z,15.51
2019-05-20T19:10:41.158Z,15.44
2019-05-20T19:13:14.445Z,15.42
2019-05-20T19:15:48.062Z,15.46
2019-05-20T19:18:20.068Z,15.38
2019-05-20T19:20:52.020Z,15.38
2019-05-20T19:23:25.466Z,15.37
2019-05-20T19:25:55.692Z,15.34
2019-05-20T19:28:28.703Z,15.30
2019-05-20T19:30:58.281Z,15.33
2019-05-20T19:33:35.225Z,15.38
2019-05-20T19:36:20.470Z,15.34
2019-05-20T19:38:52.627Z,15.38
2019-05-20T19:41:24.381Z,15.41
2019-05-20T19:43:55.008Z,15.42
2019-05-20T19:46:30.683Z,15.30
2019-05-20T19:49:08.192Z,15.39
2019-05-20T19:51:38.869Z,15.41
2019-05-20T19:54:09.875Z,15.42
2019-05-20T19:56:39.605Z,15.42
2019-05-20T19:59:19.028Z,15.46
2019-05-20T20:01:51.244Z,15.53
2019-05-20T20:04:22.244Z,15.66
2019-05-20T20:07:00.769Z,15.59
2019-05-20T20:09:34.003Z,15.62
2019-05-20T20:12:07.782Z,15.65
2019-05-20T20:14:43.318Z,15.62
2019-05-20T20:17:23.037Z,15.61
2019-05-20T20:19:58.152Z,15.54
2019-05-20T20:22:30.233Z,15.59
2019-05-20T20:25:02.979Z,15.70
2019-05-20T20:27:36.606Z,15.73
2019-05-20T20:30:18.515Z,15.70
2019-05-20T20:32:51.039Z,15.73
2019-05-20T20:35:37.358Z,15.66
2019-05-20T20:37:56.718Z,15.57
2019-05-20T20:40:26.704Z,15.59
2019-05-20T20:43:05.304Z,15.62
2019-05-20T20:45:37.786Z,15.51
2019-05-20T20:48:08.327Z,15.45
2019-05-20T20:50:41.099Z,15.40
2019-05-20T20:53:17.808Z,15.31
2019-05-20T20:55:47.752Z,15.28
2019-05-20T20:58:19.690Z,15.20
2019-05-20T21:00:50.347Z,15.26
2019-05-20T21:03:20.640Z,15.24
2019-05-20T21:05:52.662Z,15.24
2019-05-20T21:08:21.989Z,15.09
2019-05-20T21:10:51.466Z,15.15
2019-05-20T21:13:23.367Z,15.12
2019-05-20T21:15:58.512Z,15.13
2019-05-20T21:18:42.065Z,15.03
2019-05-20T21:21:12.630Z,14.97
2019-05-20T21:23:42.864Z,14.99
2019-05-20T21:26:17.444Z,15.05
2019-05-20T21:28:48.662Z,15.09
2019-05-20T21:31:31.546Z,14.90
2019-05-20T21:34:01.429Z,14.97
2019-05-20T21:36:30.198Z,14.99
2019-05-20T21:38:58.910Z,14.98
2019-05-20T21:41:27.553Z,14.94
2019-05-20T21:43:56.195Z,14.99
2019-05-20T21:46:24.880Z,14.95
2019-05-20T21:48:53.523Z,14.94
2019-05-20T21:51:22.171Z,15.03
2019-05-20T21:53:50.823Z,14.98
2019-05-20T21:56:19.453Z,15.03
2019-05-20T21:58:48.101Z,15.02
2019-05-20T22:01:16.818Z,15.01
2019-05-20T22:03:45.526Z,14.93
2019-05-20T22:06:14.162Z,15.00
2019-05-20T22:08:42.894Z,15.10
2019-05-20T22:11:11.764Z,15.04
2019-05-20T22:13:40.413Z,15.03
2019-05-20T22:16:09.308Z,15.05
2019-05-20T22:18:37.951Z,14.98
2019-05-20T22:21:08.291Z,15.00
2019-05-20T22:23:41.843Z,15.06
2019-05-20T22:26:10.540Z,15.04
2019-05-20T22:28:39.171Z,15.02
2019-05-20T22:31:07.895Z,15.00
2019-05-20T22:33:41.345Z,14.98
2019-05-20T22:36:07.216Z,15.02
2019-05-20T22:38:35.861Z,14.96
2019-05-20T22:41:04.593Z,14.85
2019-05-20T22:43:33.250Z,14.83
2019-05-20T22:46:01.956Z,14.77
2019-05-20T22:48:30.613Z,14.79
2019-05-20T22:50:59.350Z,14.78
2019-05-20T22:53:27.984Z,14.64
2019-05-20T22:55:56.695Z,14.73
2019-05-20T22:58:25.323Z,14.69
2019-05-20T23:00:53.959Z,14.74
2019-05-20T23:03:23.512Z,14.74
2019-05-20T23:05:52.160Z,14.66
2019-05-20T23:08:20.829Z,14.64
2019-05-20T23:10:49.623Z,14.64
2019-05-20T23:13:18.253Z,14.59
2019-05-20T23:15:46.982Z,14.65
2019-05-20T23:18:15.641Z,14.66
2019-05-20T23:20:44.369Z,14.65
2019-05-20T23:23:13.042Z,14.70
2019-05-20T23:25:41.771Z,14.62
2019-05-20T23:28:10.507Z,14.62
2019-05-20T23:30:39.166Z,14.62
2019-05-20T23:33:07.790Z,14.70
2019-05-20T23:35:36.447Z,14.69
2019-05-20T23:38:05.163Z,14.70
2019-05-20T23:40:33.956Z,14.69
2019-05-20T23:43:02.734Z,14.70
2019-05-20T23:45:31.410Z,14.68
2019-05-20T23:48:00.092Z,14.66
2019-05-20T23:50:28.756Z,14.74
2019-05-20T23:52:57.397Z,14.79
2019-05-20T23:55:26.065Z,14.72
2019-05-20T23:57:54.702Z,14.61
